createdAt,value
2018-07-13T00:01:49.766Z,18.10
2018-07-13T00:04:18.727Z,18.10
2018-07-13T00:06:47.550Z,18.10
2018-07-13T00:09:16.204Z,18.10
2018-07-13T00:11:44.666Z,18.10
2018-07-13T00:14:17.533Z,18.20
2018-07-13T00:16:47.411Z,18.20
2018-07-13T00:19:16.708Z,18.20
2018-07-13T00:21:45.384Z,18.20
2018-07-13T00:26:42.810Z,18.20
2018-07-13T00:29:11.675Z,18.20
2018-07-13T00:34:10.023Z,18.30
2018-07-13T00:36:38.781Z,18.30
2018-07-13T00:39:11.955Z,18.30
2018-07-13T00:41:40.556Z,18.30
2018-07-13T00:44:09.401Z,18.30
2018-07-13T00:46:37.969Z,18.30
2018-07-13T00:49:06.788Z,18.30
2018-07-13T00:51:35.593Z,18.30
2018-07-13T00:56:33.450Z,18.30
2018-07-13T00:59:02.116Z,18.30
2018-07-13T01:01:31.325Z,18.30
2018-07-13T01:03:59.912Z,18.40
2018-07-13T01:08:56.583Z,18.40
2018-07-13T01:11:25.361Z,18.40
2018-07-13T01:13:54.418Z,18.30
2018-07-13T01:16:23.034Z,18.30
2018-07-13T01:18:51.528Z,18.30
2018-07-13T01:21:20.164Z,18.30
2018-07-13T01:23:49.012Z,18.30
2018-07-13T01:26:18.535Z,18.30
2018-07-13T01:28:46.984Z,18.30
2018-07-13T01:33:43.856Z,18.30
2018-07-13T01:36:12.335Z,18.30
2018-07-13T01:38:41.209Z,18.30
2018-07-13T01:41:09.728Z,18.30
2018-07-13T01:43:38.248Z,18.30
2018-07-13T01:46:06.806Z,18.20
2018-07-13T01:48:35.735Z,18.20
2018-07-13T01:51:04.525Z,18.20
2018-07-13T01:53:33.724Z,18.20
2018-07-13T01:56:02.364Z,18.20
2018-07-13T02:00:59.535Z,18.30
2018-07-13T02:03:27.984Z,18.30
2018-07-13T02:05:56.527Z,18.30
2018-07-13T02:08:25.129Z,18.30
2018-07-13T02:10:53.930Z,18.30
2018-07-13T02:13:22.470Z,18.30
2018-07-13T02:15:50.971Z,18.30
2018-07-13T02:18:19.604Z,18.30
2018-07-13T02:20:48.120Z,18.30
2018-07-13T02:25:45.012Z,18.30
2018-07-13T02:30:42.251Z,18.30
2018-07-13T02:33:11.089Z,18.30
2018-07-13T02:38:08.541Z,18.20
2018-07-13T02:40:37.409Z,18.20
2018-07-13T02:43:06.032Z,18.20
2018-07-13T02:45:34.637Z,18.20
2018-07-13T02:48:03.281Z,18.20
2018-07-13T02:50:32.289Z,18.20
2018-07-13T02:53:00.832Z,18.20
2018-07-13T02:55:29.901Z,18.30
2018-07-13T03:00:44.287Z,18.30
2018-07-13T03:03:12.888Z,18.20
2018-07-13T03:05:42.561Z,18.20
2018-07-13T03:08:11.285Z,18.20
2018-07-13T03:10:39.884Z,18.20
2018-07-13T03:13:08.559Z,18.20
2018-07-13T03:15:37.156Z,18.10
2018-07-13T03:18:05.701Z,18.10
2018-07-13T03:20:34.694Z,18.10
2018-07-13T03:28:00.548Z,18.10
2018-07-13T03:30:28.953Z,18.10
2018-07-13T03:32:57.720Z,18.10
2018-07-13T03:35:26.162Z,18.10
2018-07-13T03:37:54.754Z,18.10
2018-07-13T03:40:23.500Z,18.10
2018-07-13T03:42:53.610Z,18.10
2018-07-13T03:45:22.176Z,18.10
2018-07-13T03:47:50.767Z,18.20
2018-07-13T03:50:19.400Z,18.20
2018-07-13T03:55:15.982Z,18.20
2018-07-13T03:57:45.108Z,18.20
2018-07-13T04:00:13.885Z,18.20
2018-07-13T04:02:42.381Z,18.20
2018-07-13T04:05:11.273Z,18.20
2018-07-13T04:10:08.252Z,18.20
2018-07-13T04:12:37.069Z,18.30
2018-07-13T04:15:05.631Z,18.20
2018-07-13T04:17:34.222Z,18.30
2018-07-13T04:20:02.572Z,18.30
2018-07-13T04:22:32.147Z,18.30
2018-07-13T04:25:00.846Z,18.40
2018-07-13T04:27:29.843Z,18.40
2018-07-13T04:29:58.580Z,18.40
2018-07-13T04:34:56.005Z,18.50
2018-07-13T04:37:25.000Z,18.60
2018-07-13T04:39:54.512Z,18.60
2018-07-13T04:42:23.075Z,18.60
2018-07-13T04:44:51.642Z,18.60
2018-07-13T04:47:20.152Z,18.60
2018-07-13T04:49:48.632Z,18.60
2018-07-13T04:52:17.170Z,18.70
2018-07-13T04:57:14.728Z,18.60
2018-07-13T04:59:43.199Z,18.70
2018-07-13T05:02:11.944Z,18.70
2018-07-13T05:04:40.426Z,18.70
2018-07-13T05:07:09.104Z,18.70
2018-07-13T05:09:37.854Z,18.70
2018-07-13T05:14:34.709Z,18.70
2018-07-13T05:17:03.363Z,18.70
2018-07-13T05:19:31.944Z,18.80
2018-07-13T05:22:00.666Z,18.80
2018-07-13T05:24:29.311Z,18.80
2018-07-13T05:26:57.740Z,18.80
2018-07-13T05:29:26.178Z,18.80
2018-07-13T05:31:56.681Z,18.80
2018-07-13T05:34:25.705Z,18.70
2018-07-13T05:36:55.656Z,18.80
2018-07-13T05:39:25.057Z,18.90
2018-07-13T05:41:54.404Z,18.90
2018-07-13T05:49:21.713Z,19.00
2018-07-13T05:51:51.367Z,19.00
2018-07-13T05:54:20.421Z,19.10
2018-07-13T05:56:49.155Z,19.10
2018-07-13T05:59:17.606Z,19.10
2018-07-13T06:01:46.175Z,19.20
2018-07-13T06:04:14.704Z,19.30
2018-07-13T06:06:43.475Z,19.40
2018-07-13T06:09:12.521Z,19.50
2018-07-13T06:11:43.355Z,19.60
2018-07-13T06:14:13.516Z,19.60
2018-07-13T06:19:21.368Z,19.60
2018-07-13T06:21:55.075Z,19.60
2018-07-13T06:24:23.584Z,19.60
2018-07-13T06:29:27.265Z,19.50
2018-07-13T06:31:58.818Z,19.50
2018-07-13T06:34:41.140Z,19.50
2018-07-13T06:37:10.944Z,19.50
2018-07-13T06:39:39.686Z,19.60
2018-07-13T06:42:09.146Z,19.60
2018-07-13T06:47:06.519Z,19.70
2018-07-13T06:49:35.049Z,19.70
2018-07-13T06:54:31.718Z,19.80
2018-07-13T06:59:28.394Z,19.70
2018-07-13T07:04:33.305Z,19.70
2018-07-13T07:09:34.920Z,19.60
2018-07-13T07:12:13.041Z,19.50
2018-07-13T07:14:41.781Z,19.60
2018-07-13T07:19:39.292Z,19.70
2018-07-13T07:24:36.079Z,19.60
2018-07-13T07:27:04.380Z,19.80
2018-07-13T07:29:32.996Z,19.70
2018-07-13T07:32:01.668Z,19.80
2018-07-13T07:34:29.993Z,19.90
2018-07-13T07:36:58.348Z,19.90
2018-07-13T07:39:26.972Z,20.00
2018-07-13T07:41:55.868Z,20.00
2018-07-13T07:44:24.636Z,20.00
2018-07-13T07:46:53.013Z,20.00
2018-07-13T07:49:21.372Z,20.00
2018-07-13T07:51:49.718Z,20.00
2018-07-13T07:54:18.128Z,20.00
2018-07-13T07:56:46.509Z,20.10
2018-07-13T07:59:14.851Z,20.00
2018-07-13T08:01:43.304Z,20.10
2018-07-13T08:04:11.812Z,20.30
2018-07-13T08:06:40.246Z,20.40
2018-07-13T08:09:08.393Z,20.40
2018-07-13T08:11:36.715Z,20.50
2018-07-13T08:14:05.524Z,20.50
2018-07-13T08:16:33.626Z,20.50
2018-07-13T08:19:02.102Z,20.50
2018-07-13T08:21:30.602Z,20.40
2018-07-13T08:26:27.180Z,20.30
2018-07-13T08:31:24.466Z,20.60
2018-07-13T08:33:52.795Z,20.70
2018-07-13T08:36:21.093Z,20.70
2018-07-13T08:38:49.434Z,20.80
2018-07-13T08:43:45.716Z,21.00
2018-07-13T08:46:14.029Z,21.00
2018-07-13T08:48:42.352Z,21.00
2018-07-13T08:51:10.677Z,21.10
2018-07-13T08:56:07.604Z,21.30
2018-07-13T09:01:04.025Z,21.30
2018-07-13T09:06:00.485Z,21.50
2018-07-13T09:08:28.875Z,21.60
2018-07-13T09:10:57.230Z,21.60
2018-07-13T09:13:25.539Z,21.70
2018-07-13T09:15:54.240Z,21.80
2018-07-13T09:18:22.555Z,21.80
2018-07-13T09:20:50.832Z,21.90
2018-07-13T09:23:19.136Z,21.90
2018-07-13T09:28:15.559Z,22.20
2018-07-13T09:30:44.010Z,22.30
2018-07-13T09:33:12.337Z,22.30
2018-07-13T09:35:40.619Z,22.30
2018-07-13T09:38:08.935Z,22.40
2018-07-13T09:40:37.285Z,22.30
2018-07-13T09:43:05.665Z,22.30
2018-07-13T09:45:33.968Z,22.40
2018-07-13T09:48:02.303Z,22.50
2018-07-13T09:50:30.604Z,22.60
2018-07-13T09:52:58.995Z,22.60
2018-07-13T09:55:27.343Z,22.50
2018-07-13T09:57:55.667Z,22.50
2018-07-13T10:00:28.289Z,22.50
2018-07-13T10:02:56.674Z,22.70
2018-07-13T10:05:25.180Z,22.70
2018-07-13T10:07:53.458Z,22.80
2018-07-13T10:12:49.744Z,22.90
2018-07-13T10:15:18.025Z,23.00
2018-07-13T10:20:14.413Z,23.20
2018-07-13T10:22:42.821Z,23.20
2018-07-13T10:25:11.080Z,23.40
2018-07-13T10:27:39.665Z,23.70
2018-07-13T10:30:10.549Z,23.70
2018-07-13T10:32:38.837Z,23.70
2018-07-13T10:35:07.843Z,23.50
2018-07-13T10:37:36.180Z,23.70
2018-07-13T10:42:32.697Z,24.10
2018-07-13T10:45:01.017Z,24.20
2018-07-13T10:47:29.294Z,24.10
2018-07-13T10:52:32.273Z,23.70
2018-07-13T10:55:00.597Z,24.20
2018-07-13T10:57:30.552Z,24.40
2018-07-13T11:02:27.213Z,24.20
2018-07-13T11:04:55.577Z,24.40
2018-07-13T11:09:52.880Z,24.40
2018-07-13T11:12:21.215Z,24.50
2018-07-13T11:14:49.539Z,24.50
2018-07-13T11:19:46.080Z,24.50
2018-07-13T11:22:14.437Z,24.50
2018-07-13T11:24:42.712Z,24.00
2018-07-13T11:27:11.017Z,24.10
2018-07-13T11:29:39.339Z,24.30
2018-07-13T11:32:07.704Z,24.40
2018-07-13T11:34:36.001Z,24.30
2018-07-13T11:37:04.421Z,24.20
2018-07-13T11:39:32.621Z,24.30
2018-07-13T11:42:00.933Z,24.40
2018-07-13T11:44:29.226Z,24.40
2018-07-13T11:46:57.536Z,24.40
2018-07-13T11:49:25.832Z,24.40
2018-07-13T11:51:54.201Z,24.50
2018-07-13T11:54:22.490Z,24.50
2018-07-13T11:56:50.813Z,24.40
2018-07-13T11:59:19.133Z,24.30
2018-07-13T12:01:47.484Z,24.60
2018-07-13T12:04:16.544Z,24.70
2018-07-13T12:09:13.149Z,24.40
2018-07-13T12:11:41.510Z,24.40
2018-07-13T12:14:09.804Z,24.70
2018-07-13T12:19:06.147Z,24.70
2018-07-13T12:21:34.449Z,24.70
2018-07-13T12:26:30.854Z,24.50
2018-07-13T12:28:59.460Z,24.60
2018-07-13T12:31:27.756Z,24.70
2018-07-13T12:33:56.169Z,24.70
2018-07-13T12:36:24.451Z,24.50
2018-07-13T12:38:52.788Z,24.50
2018-07-13T12:43:49.252Z,24.50
2018-07-13T12:46:17.771Z,24.70
2018-07-13T12:48:46.037Z,24.70
2018-07-13T12:53:42.569Z,24.50
2018-07-13T12:56:11.030Z,24.40
2018-07-13T12:58:39.456Z,24.40
2018-07-13T13:01:07.708Z,24.10
2018-07-13T13:03:36.032Z,24.60
2018-07-13T13:06:04.380Z,24.60
2018-07-13T13:08:33.024Z,24.40
2018-07-13T13:11:01.468Z,24.70
2018-07-13T13:13:29.774Z,24.70
2018-07-13T13:15:58.072Z,24.80
2018-07-13T13:18:26.349Z,24.70
2018-07-13T13:20:54.920Z,25.10
2018-07-13T13:25:51.323Z,24.70
2018-07-13T13:28:19.664Z,24.40
2018-07-13T13:30:47.956Z,24.20
2018-07-13T13:35:44.327Z,24.00
2018-07-13T13:38:12.687Z,23.50
2018-07-13T13:40:41.046Z,23.60
2018-07-13T13:43:09.340Z,23.70
2018-07-13T13:45:37.631Z,23.70
2018-07-13T13:48:05.934Z,23.70
2018-07-13T13:50:34.303Z,23.60
2018-07-13T13:53:02.623Z,23.70
2018-07-13T13:55:31.076Z,24.00
2018-07-13T13:57:59.461Z,24.20
2018-07-13T14:00:27.733Z,23.80
2018-07-13T14:02:56.076Z,24.00
2018-07-13T14:05:24.409Z,24.10
2018-07-13T14:07:53.017Z,24.50
2018-07-13T14:10:21.409Z,24.80
2018-07-13T14:15:17.792Z,24.60
2018-07-13T14:17:46.144Z,24.70
2018-07-13T14:20:14.451Z,24.80
2018-07-13T14:22:42.755Z,24.60
2018-07-13T14:25:11.095Z,24.60
2018-07-13T14:27:39.484Z,24.60
2018-07-13T14:30:07.785Z,24.60
2018-07-13T14:32:36.065Z,24.80
2018-07-13T14:35:04.448Z,24.70
2018-07-13T14:37:32.796Z,24.70
2018-07-13T14:42:29.236Z,24.40
2018-07-13T14:44:57.556Z,24.50
2018-07-13T14:49:53.924Z,24.30
2018-07-13T14:54:50.354Z,24.20
2018-07-13T14:57:18.701Z,24.40
2018-07-13T15:02:15.173Z,24.10
2018-07-13T15:04:43.571Z,24.20
2018-07-13T15:07:12.498Z,24.00
2018-07-13T15:09:40.792Z,23.80
2018-07-13T15:12:09.429Z,23.80
2018-07-13T15:14:37.868Z,23.50
2018-07-13T15:17:06.184Z,23.60
2018-07-13T15:19:34.494Z,23.70
2018-07-13T15:22:02.886Z,23.70
2018-07-13T15:24:31.195Z,23.90
2018-07-13T15:29:28.216Z,23.70
2018-07-13T15:31:56.784Z,23.80
2018-07-13T15:36:53.328Z,23.80
2018-07-13T15:39:21.640Z,23.40
2018-07-13T15:44:18.328Z,23.50
2018-07-13T15:49:14.711Z,23.50
2018-07-13T15:51:43.161Z,23.50
2018-07-13T15:54:11.490Z,23.50
2018-07-13T15:56:39.768Z,23.30
2018-07-13T16:01:36.164Z,23.40
2018-07-13T16:04:04.472Z,23.40
2018-07-13T16:06:32.833Z,23.30
2018-07-13T16:09:01.211Z,23.10
2018-07-13T16:13:57.540Z,23.00
2018-07-13T16:16:25.913Z,23.00
2018-07-13T16:18:54.882Z,23.00
2018-07-13T16:23:51.188Z,23.20
2018-07-13T16:26:19.484Z,23.20
2018-07-13T16:28:47.849Z,23.00
2018-07-13T16:31:16.176Z,23.00
2018-07-13T16:33:44.491Z,22.90
2018-07-13T16:36:12.919Z,22.90
2018-07-13T16:38:41.393Z,22.70
2018-07-13T16:43:37.773Z,22.60
2018-07-13T16:48:34.229Z,22.40
2018-07-13T16:51:02.604Z,22.40
2018-07-13T16:53:31.020Z,22.30
2018-07-13T16:55:59.422Z,22.40
2018-07-13T17:00:55.868Z,22.20
2018-07-13T17:03:24.213Z,22.30
2018-07-13T17:05:52.608Z,22.20
2018-07-13T17:08:20.981Z,22.30
2018-07-13T17:10:49.285Z,22.30
2018-07-13T17:13:17.578Z,22.20
2018-07-13T17:15:45.892Z,22.20
2018-07-13T17:18:14.424Z,22.20
2018-07-13T17:23:10.858Z,22.00
2018-07-13T17:25:39.220Z,21.90
2018-07-13T17:28:07.946Z,21.80
2018-07-13T17:30:36.273Z,21.80
2018-07-13T17:38:00.906Z,21.70
2018-07-13T17:40:29.468Z,21.60
2018-07-13T17:42:57.881Z,21.60
2018-07-13T17:47:54.633Z,21.30
2018-07-13T17:50:23.480Z,21.40
2018-07-13T17:52:51.846Z,21.30
2018-07-13T17:55:20.225Z,21.20
2018-07-13T17:57:48.616Z,21.20
2018-07-13T18:00:17.004Z,21.30
2018-07-13T18:02:45.319Z,21.20
2018-07-13T18:05:13.641Z,21.10
2018-07-13T18:07:41.996Z,21.10
2018-07-13T18:10:10.330Z,21.00
2018-07-13T18:15:06.746Z,20.80
2018-07-13T18:17:35.157Z,20.80
2018-07-13T18:20:03.561Z,20.80
2018-07-13T18:22:32.016Z,20.70
2018-07-13T18:25:00.412Z,20.70
2018-07-13T18:27:28.844Z,20.70
2018-07-13T18:29:57.285Z,20.80
2018-07-13T18:32:25.780Z,20.80
2018-07-13T18:34:55.190Z,20.70
2018-07-13T18:37:24.756Z,20.60
2018-07-13T18:39:53.267Z,20.60
2018-07-13T18:42:21.677Z,20.40
2018-07-13T18:44:51.812Z,20.30
2018-07-13T18:47:24.108Z,20.30
2018-07-13T18:49:53.744Z,20.30
2018-07-13T18:52:22.495Z,20.20
2018-07-13T18:54:51.002Z,20.20
2018-07-13T18:57:19.527Z,20.20
2018-07-13T18:59:47.985Z,20.20
2018-07-13T19:02:16.351Z,20.10
2018-07-13T19:04:44.857Z,20.20
2018-07-13T19:07:13.415Z,20.20
2018-07-13T19:09:41.840Z,20.20
2018-07-13T19:12:10.353Z,20.20
2018-07-13T19:14:38.733Z,20.10
2018-07-13T19:17:07.160Z,19.90
2018-07-13T19:19:35.725Z,19.90
2018-07-13T19:24:32.408Z,19.80
2018-07-13T19:29:29.475Z,19.70
2018-07-13T19:31:57.852Z,19.60
2018-07-13T19:34:26.703Z,19.60
2018-07-13T19:36:55.256Z,19.60
2018-07-13T19:39:23.660Z,19.60
2018-07-13T19:41:52.035Z,19.60
2018-07-13T19:44:20.565Z,19.70
2018-07-13T19:46:57.363Z,19.60
2018-07-13T19:52:43.381Z,19.50
2018-07-13T19:55:12.066Z,19.30
2018-07-13T19:57:41.039Z,19.30
2018-07-13T20:00:09.540Z,19.20
2018-07-13T20:02:37.955Z,19.20
2018-07-13T20:05:06.819Z,19.20
2018-07-13T20:07:35.390Z,19.10
2018-07-13T20:10:04.097Z,19.00
2018-07-13T20:12:32.762Z,19.00
2018-07-13T20:15:01.388Z,19.00
2018-07-13T20:17:30.178Z,19.10
2018-07-13T20:19:58.976Z,19.00
2018-07-13T20:22:32.025Z,19.00
2018-07-13T20:25:06.532Z,18.90
2018-07-13T20:27:39.381Z,18.80
2018-07-13T20:30:09.361Z,18.80
2018-07-13T20:32:45.801Z,18.80
2018-07-13T20:35:14.340Z,18.80
2018-07-13T20:40:11.129Z,18.70
2018-07-13T20:42:40.217Z,18.60
2018-07-13T20:45:08.863Z,18.60
2018-07-13T20:47:37.351Z,18.60
2018-07-13T20:50:06.129Z,18.60
2018-07-13T20:52:34.993Z,18.60
2018-07-13T20:55:03.826Z,18.60
2018-07-13T20:57:32.529Z,18.60
2018-07-13T21:00:01.288Z,18.60
2018-07-13T21:02:30.048Z,18.60
2018-07-13T21:04:58.456Z,18.60
2018-07-13T21:07:27.188Z,18.60
2018-07-13T21:09:55.829Z,18.50
2018-07-13T21:12:24.323Z,18.50
2018-07-13T21:14:53.219Z,18.50
2018-07-13T21:17:23.549Z,18.50
2018-07-13T21:22:47.213Z,18.50
2018-07-13T21:25:15.970Z,18.40
2018-07-13T21:27:44.637Z,18.40
2018-07-13T21:30:13.305Z,18.40
2018-07-13T21:32:41.796Z,18.40
2018-07-13T21:35:10.397Z,18.50
2018-07-13T21:37:39.357Z,18.40
2018-07-13T21:40:08.685Z,18.40
2018-07-13T21:42:39.281Z,18.40
2018-07-13T21:45:09.007Z,18.40
2018-07-13T21:47:38.058Z,18.40
2018-07-13T21:50:06.724Z,18.30
2018-07-13T21:55:03.326Z,18.30
2018-07-13T21:57:32.433Z,18.30
2018-07-13T22:00:01.108Z,18.30
2018-07-13T22:02:46.821Z,18.20
2018-07-13T22:05:17.850Z,18.30
2018-07-13T22:07:46.633Z,18.20
2018-07-13T22:10:15.815Z,18.20
2018-07-13T22:12:48.340Z,18.20
2018-07-13T22:15:19.649Z,18.20
2018-07-13T22:17:48.274Z,18.10
2018-07-13T22:20:16.616Z,18.10
2018-07-13T22:25:13.248Z,18.10
2018-07-13T22:27:41.690Z,18.00
2018-07-13T22:32:41.263Z,18.00
2018-07-13T22:35:09.694Z,18.00
2018-07-13T22:37:38.354Z,18.00
2018-07-13T22:40:15.953Z,18.00
2018-07-13T22:42:45.601Z,17.90
2018-07-13T22:45:15.057Z,17.90
2018-07-13T22:50:11.512Z,17.80
2018-07-13T22:52:40.648Z,17.80
2018-07-13T22:55:12.653Z,17.80
2018-07-13T22:57:42.183Z,17.80
2018-07-13T23:00:10.497Z,17.70
2018-07-13T23:02:39.054Z,17.80
2018-07-13T23:05:08.721Z,17.70
2018-07-13T23:07:38.119Z,17.70
2018-07-13T23:10:07.816Z,17.70
2018-07-13T23:12:36.482Z,17.70
2018-07-13T23:17:35.592Z,17.70
2018-07-13T23:20:05.097Z,17.70
2018-07-13T23:22:33.428Z,17.70
2018-07-13T23:27:29.818Z,17.60
2018-07-13T23:29:58.904Z,17.70
2018-07-13T23:41:33.288Z,17.50
2018-07-13T23:44:01.923Z,17.50
2018-07-13T23:46:30.526Z,17.50
2018-07-13T23:48:58.963Z,17.50
2018-07-13T23:51:27.375Z,17.50
2018-07-13T23:56:24.268Z,17.50
2018-07-13T23:58:52.937Z,17.50
